sensor_id;sensor_type;location;lat;lon;timestamp;P1;durP1;ratioP1;P2;durP2;ratioP2
13197;SDS011;6664;52.514;13.440;2023-04-24T00:00:39;3.23;;;2.60;;
13197;SDS011;6664;52.514;13.440;2023-04-24T00:03:28;2.90;;;2.57;;
13197;SDS011;6664;52.514;13.440;2023-04-24T00:06:15;3.63;;;3.33;;
13197;SDS011;6664;52.514;13.440;2023-04-24T00:09:02;3.50;;;3.17;;
13197;SDS011;6664;52.514;13.440;2023-04-24T00:11:48;3.60;;;3.30;;
13197;SDS011;6664;52.514;13.440;2023-04-24T00:14:36;4.57;;;3.70;;
13197;SDS011;6664;52.514;13.440;2023-04-24T00:17:21;3.77;;;3.47;;
13197;SDS011;6664;52.514;13.440;2023-04-24T00:20:07;3.07;;;2.87;;
13197;SDS011;6664;52.514;13.440;2023-04-24T00:22:55;3.97;;;2.80;;
13197;SDS011;6664;52.514;13.440;2023-04-24T00:25:43;3.33;;;3.10;;
13197;SDS011;6664;52.514;13.440;2023-04-24T00:28:29;4.30;;;3.87;;
13197;SDS011;6664;52.514;13.440;2023-04-24T00:31:14;3.37;;;2.70;;
13197;SDS011;6664;52.514;13.440;2023-04-24T00:34:00;2.70;;;2.60;;
13197;SDS011;6664;52.514;13.440;2023-04-24T00:36:48;5.30;;;2.90;;
13197;SDS011;6664;52.514;13.440;2023-04-24T00:39:39;3.87;;;3.17;;
13197;SDS011;6664;52.514;13.440;2023-04-24T00:42:25;3.17;;;2.87;;
13197;SDS011;6664;52.514;13.440;2023-04-24T00:45:11;4.07;;;3.50;;
13197;SDS011;6664;52.514;13.440;2023-04-24T00:47:57;5.70;;;3.00;;
13197;SDS011;6664;52.514;13.440;2023-04-24T00:50:43;3.63;;;3.33;;
13197;SDS011;6664;52.514;13.440;2023-04-24T00:53:30;3.37;;;3.07;;
13197;SDS011;6664;52.514;13.440;2023-04-24T00:56:17;3.27;;;2.97;;
13197;SDS011;6664;52.514;13.440;2023-04-24T00:59:04;3.07;;;2.87;;
13197;SDS011;6664;52.514;13.440;2023-04-24T01:01:49;4.00;;;3.53;;
13197;SDS011;6664;52.514;13.440;2023-04-24T01:04:36;3.67;;;3.37;;
13197;SDS011;6664;52.514;13.440;2023-04-24T01:07:25;2.43;;;2.23;;
13197;SDS011;6664;52.514;13.440;2023-04-24T01:10:11;3.87;;;3.47;;
13197;SDS011;6664;52.514;13.440;2023-04-24T01:12:59;6.67;;;3.40;;
13197;SDS011;6664;52.514;13.440;2023-04-24T01:15:45;4.50;;;3.87;;
13197;SDS011;6664;52.514;13.440;2023-04-24T01:18:31;3.40;;;3.20;;
13197;SDS011;6664;52.514;13.440;2023-04-24T01:21:17;4.07;;;3.67;;
13197;SDS011;6664;52.514;13.440;2023-04-24T01:24:05;3.57;;;3.27;;
13197;SDS011;6664;52.514;13.440;2023-04-24T01:26:50;4.60;;;3.23;;
13197;SDS011;6664;52.514;13.440;2023-04-24T01:29:36;3.13;;;2.80;;
13197;SDS011;6664;52.514;13.440;2023-04-24T01:32:22;4.77;;;3.20;;
13197;SDS011;6664;52.514;13.440;2023-04-24T01:35:08;6.73;;;3.87;;
13197;SDS011;6664;52.514;13.440;2023-04-24T01:37:54;3.30;;;3.07;;
13197;SDS011;6664;52.514;13.440;2023-04-24T01:40:39;3.97;;;3.60;;
13197;SDS011;6664;52.514;13.440;2023-04-24T01:43:25;3.23;;;3.03;;
13197;SDS011;6664;52.514;13.440;2023-04-24T01:46:12;8.33;;;3.17;;
13197;SDS011;6664;52.514;13.440;2023-04-24T01:49:01;4.00;;;3.37;;
13197;SDS011;6664;52.514;13.440;2023-04-24T01:51:47;3.93;;;3.63;;
13197;SDS011;6664;52.514;13.440;2023-04-24T01:54:32;4.80;;;4.23;;
13197;SDS011;6664;52.514;13.440;2023-04-24T01:57:20;7.90;;;4.90;;
13197;SDS011;6664;52.514;13.440;2023-04-24T02:00:06;5.93;;;4.30;;
13197;SDS011;6664;52.514;13.440;2023-04-24T02:02:52;4.47;;;3.13;;
13197;SDS011;6664;52.514;13.440;2023-04-24T02:05:38;3.97;;;3.57;;
13197;SDS011;6664;52.514;13.440;2023-04-24T02:08:23;3.37;;;3.10;;
13197;SDS011;6664;52.514;13.440;2023-04-24T02:11:11;4.40;;;3.10;;
13197;SDS011;6664;52.514;13.440;2023-04-24T02:13:59;3.30;;;3.10;;
13197;SDS011;6664;52.514;13.440;2023-04-24T02:16:46;3.20;;;3.00;;
13197;SDS011;6664;52.514;13.440;2023-04-24T02:19:32;4.70;;;3.60;;
13197;SDS011;6664;52.514;13.440;2023-04-24T02:22:17;3.80;;;3.37;;
13197;SDS011;6664;52.514;13.440;2023-04-24T02:25:03;3.70;;;3.40;;
13197;SDS011;6664;52.514;13.440;2023-04-24T02:27:49;4.17;;;3.77;;
13197;SDS011;6664;52.514;13.440;2023-04-24T02:30:34;5.27;;;4.60;;
13197;SDS011;6664;52.514;13.440;2023-04-24T02:33:21;5.67;;;3.90;;
13197;SDS011;6664;52.514;13.440;2023-04-24T02:36:09;5.77;;;4.53;;
13197;SDS011;6664;52.514;13.440;2023-04-24T02:38:55;4.87;;;4.37;;
13197;SDS011;6664;52.514;13.440;2023-04-24T02:41:40;4.50;;;4.10;;
13197;SDS011;6664;52.514;13.440;2023-04-24T02:44:28;4.43;;;4.03;;
13197;SDS011;6664;52.514;13.440;2023-04-24T02:47:14;4.57;;;4.17;;
13197;SDS011;6664;52.514;13.440;2023-04-24T02:49:59;5.83;;;4.83;;
13197;SDS011;6664;52.514;13.440;2023-04-24T02:52:47;4.23;;;3.83;;
13197;SDS011;6664;52.514;13.440;2023-04-24T02:55:37;4.63;;;3.83;;
13197;SDS011;6664;52.514;13.440;2023-04-24T02:58:23;4.37;;;3.97;;
13197;SDS011;6664;52.514;13.440;2023-04-24T03:01:09;5.33;;;3.70;;
13197;SDS011;6664;52.514;13.440;2023-04-24T03:03:57;6.07;;;4.10;;
13197;SDS011;6664;52.514;13.440;2023-04-24T03:06:43;5.10;;;4.60;;
13197;SDS011;6664;52.514;13.440;2023-04-24T03:09:28;5.03;;;4.53;;
13197;SDS011;6664;52.514;13.440;2023-04-24T03:12:14;6.00;;;4.90;;
13197;SDS011;6664;52.514;13.440;2023-04-24T03:15:02;5.87;;;4.23;;
13197;SDS011;6664;52.514;13.440;2023-04-24T03:17:48;11.20;;;5.23;;
13197;SDS011;6664;52.514;13.440;2023-04-24T03:20:36;5.23;;;4.40;;
13197;SDS011;6664;52.514;13.440;2023-04-24T03:23:22;7.80;;;4.73;;
13197;SDS011;6664;52.514;13.440;2023-04-24T03:26:07;5.00;;;3.70;;
13197;SDS011;6664;52.514;13.440;2023-04-24T03:28:52;4.30;;;4.00;;
13197;SDS011;6664;52.514;13.440;2023-04-24T03:31:41;4.90;;;3.67;;
13197;SDS011;6664;52.514;13.440;2023-04-24T03:34:26;5.87;;;3.50;;
13197;SDS011;6664;52.514;13.440;2023-04-24T03:37:14;4.93;;;4.00;;
13197;SDS011;6664;52.514;13.440;2023-04-24T03:40:02;4.67;;;4.27;;
13197;SDS011;6664;52.514;13.440;2023-04-24T03:42:50;5.70;;;3.90;;
13197;SDS011;6664;52.514;13.440;2023-04-24T03:45:36;3.80;;;3.50;;
13197;SDS011;6664;52.514;13.440;2023-04-24T03:48:21;3.73;;;3.23;;
13197;SDS011;6664;52.514;13.440;2023-04-24T03:51:09;4.03;;;3.60;;
13197;SDS011;6664;52.514;13.440;2023-04-24T03:53:54;4.43;;;3.67;;
13197;SDS011;6664;52.514;13.440;2023-04-24T03:56:40;4.10;;;3.70;;
13197;SDS011;6664;52.514;13.440;2023-04-24T03:59:25;4.07;;;3.70;;
13197;SDS011;6664;52.514;13.440;2023-04-24T04:02:11;3.50;;;3.20;;
13197;SDS011;6664;52.514;13.440;2023-04-24T04:04:56;5.37;;;4.10;;
13197;SDS011;6664;52.514;13.440;2023-04-24T04:07:42;4.80;;;3.70;;
13197;SDS011;6664;52.514;13.440;2023-04-24T04:10:28;3.63;;;3.33;;
13197;SDS011;6664;52.514;13.440;2023-04-24T04:13:13;3.10;;;2.90;;
13197;SDS011;6664;52.514;13.440;2023-04-24T04:15:59;4.27;;;3.43;;
13197;SDS011;6664;52.514;13.440;2023-04-24T04:18:44;3.33;;;3.10;;
13197;SDS011;6664;52.514;13.440;2023-04-24T04:21:30;3.90;;;3.60;;
13197;SDS011;6664;52.514;13.440;2023-04-24T04:24:16;3.57;;;3.27;;
13197;SDS011;6664;52.514;13.440;2023-04-24T04:27:02;4.40;;;4.00;;
13197;SDS011;6664;52.514;13.440;2023-04-24T04:29:49;4.50;;;4.10;;
13197;SDS011;6664;52.514;13.440;2023-04-24T04:32:35;4.50;;;3.40;;
13197;SDS011;6664;52.514;13.440;2023-04-24T04:35:25;3.50;;;3.20;;
13197;SDS011;6664;52.514;13.440;2023-04-24T04:38:11;3.80;;;3.50;;
13197;SDS011;6664;52.514;13.440;2023-04-24T04:40:56;3.33;;;3.13;;
13197;SDS011;6664;52.514;13.440;2023-04-24T04:43:42;3.93;;;3.27;;
13197;SDS011;6664;52.514;13.440;2023-04-24T04:46:27;3.73;;;3.40;;
13197;SDS011;6664;52.514;13.440;2023-04-24T04:49:17;4.70;;;4.20;;
13197;SDS011;6664;52.514;13.440;2023-04-24T04:52:03;6.20;;;3.53;;
13197;SDS011;6664;52.514;13.440;2023-04-24T04:54:49;4.80;;;4.27;;
13197;SDS011;6664;52.514;13.440;2023-04-24T04:57:38;5.40;;;3.23;;
13197;SDS011;6664;52.514;13.440;2023-04-24T05:00:23;3.57;;;3.27;;
13197;SDS011;6664;52.514;13.440;2023-04-24T05:03:19;10.47;;;4.40;;
13197;SDS011;6664;52.514;13.440;2023-04-24T05:06:05;3.80;;;3.40;;
13197;SDS011;6664;52.514;13.440;2023-04-24T05:08:51;4.00;;;3.57;;
13197;SDS011;6664;52.514;13.440;2023-04-24T05:11:41;4.07;;;3.67;;
13197;SDS011;6664;52.514;13.440;2023-04-24T05:14:29;3.30;;;3.00;;
13197;SDS011;6664;52.514;13.440;2023-04-24T05:17:15;5.70;;;3.73;;
13197;SDS011;6664;52.514;13.440;2023-04-24T05:20:02;4.30;;;3.33;;
13197;SDS011;6664;52.514;13.440;2023-04-24T05:22:50;3.80;;;3.47;;
13197;SDS011;6664;52.514;13.440;2023-04-24T05:25:35;3.70;;;3.40;;
13197;SDS011;6664;52.514;13.440;2023-04-24T05:28:21;3.60;;;3.30;;
13197;SDS011;6664;52.514;13.440;2023-04-24T05:31:07;3.70;;;3.33;;
13197;SDS011;6664;52.514;13.440;2023-04-24T05:33:53;5.83;;;3.60;;
13197;SDS011;6664;52.514;13.440;2023-04-24T05:36:40;3.07;;;2.77;;
13197;SDS011;6664;52.514;13.440;2023-04-24T05:39:27;5.63;;;3.13;;
13197;SDS011;6664;52.514;13.440;2023-04-24T05:42:13;3.60;;;2.87;;
13197;SDS011;6664;52.514;13.440;2023-04-24T05:44:58;2.40;;;2.20;;
13197;SDS011;6664;52.514;13.440;2023-04-24T05:47:44;2.20;;;2.10;;
13197;SDS011;6664;52.514;13.440;2023-04-24T05:50:32;2.70;;;2.50;;
13197;SDS011;6664;52.514;13.440;2023-04-24T05:53:23;2.27;;;2.17;;
13197;SDS011;6664;52.514;13.440;2023-04-24T05:56:11;1.97;;;1.87;;
13197;SDS011;6664;52.514;13.440;2023-04-24T05:58:56;1.50;;;1.40;;
13197;SDS011;6664;52.514;13.440;2023-04-24T06:01:42;3.23;;;1.70;;
13197;SDS011;6664;52.514;13.440;2023-04-24T06:04:27;1.50;;;1.40;;
13197;SDS011;6664;52.514;13.440;2023-04-24T06:07:13;3.83;;;1.70;;
13197;SDS011;6664;52.514;13.440;2023-04-24T06:09:58;2.13;;;1.50;;
13197;SDS011;6664;52.514;13.440;2023-04-24T06:12:46;1.40;;;1.30;;
13197;SDS011;6664;52.514;13.440;2023-04-24T06:15:34;1.40;;;1.30;;
13197;SDS011;6664;52.514;13.440;2023-04-24T06:18:20;1.70;;;1.60;;
13197;SDS011;6664;52.514;13.440;2023-04-24T06:21:06;1.50;;;1.40;;
13197;SDS011;6664;52.514;13.440;2023-04-24T06:23:51;3.13;;;1.53;;
13197;SDS011;6664;52.514;13.440;2023-04-24T06:26:37;1.43;;;1.33;;
13197;SDS011;6664;52.514;13.440;2023-04-24T06:29:22;1.80;;;1.63;;
13197;SDS011;6664;52.514;13.440;2023-04-24T06:32:08;2.40;;;1.67;;
13197;SDS011;6664;52.514;13.440;2023-04-24T06:34:53;1.83;;;1.40;;
13197;SDS011;6664;52.514;13.440;2023-04-24T06:37:41;1.40;;;1.30;;
13197;SDS011;6664;52.514;13.440;2023-04-24T06:40:27;1.77;;;1.63;;
13197;SDS011;6664;52.514;13.440;2023-04-24T06:43:13;2.50;;;1.23;;
13197;SDS011;6664;52.514;13.440;2023-04-24T06:46:00;1.30;;;1.20;;
13197;SDS011;6664;52.514;13.440;2023-04-24T06:48:47;5.70;;;1.77;;
13197;SDS011;6664;52.514;13.440;2023-04-24T06:51:32;2.40;;;1.40;;
13197;SDS011;6664;52.514;13.440;2023-04-24T06:54:18;1.20;;;1.20;;
13197;SDS011;6664;52.514;13.440;2023-04-24T06:57:09;1.43;;;1.33;;
13197;SDS011;6664;52.514;13.440;2023-04-24T06:59:55;1.20;;;1.20;;
13197;SDS011;6664;52.514;13.440;2023-04-24T07:02:40;3.23;;;1.20;;
13197;SDS011;6664;52.514;13.440;2023-04-24T07:05:28;1.83;;;1.27;;
13197;SDS011;6664;52.514;13.440;2023-04-24T07:08:14;2.23;;;1.50;;
13197;SDS011;6664;52.514;13.440;2023-04-24T07:11:02;1.00;;;1.00;;
13197;SDS011;6664;52.514;13.440;2023-04-24T07:13:47;1.20;;;1.10;;
13197;SDS011;6664;52.514;13.440;2023-04-24T07:16:33;1.73;;;1.10;;
13197;SDS011;6664;52.514;13.440;2023-04-24T07:19:19;2.33;;;1.10;;
13197;SDS011;6664;52.514;13.440;2023-04-24T07:22:05;1.40;;;1.27;;
13197;SDS011;6664;52.514;13.440;2023-04-24T07:24:52;0.90;;;0.90;;
13197;SDS011;6664;52.514;13.440;2023-04-24T07:27:37;0.97;;;0.97;;
13197;SDS011;6664;52.514;13.440;2023-04-24T07:30:26;0.80;;;0.80;;
13197;SDS011;6664;52.514;13.440;2023-04-24T07:33:13;1.30;;;0.80;;
13197;SDS011;6664;52.514;13.440;2023-04-24T07:35:59;0.70;;;0.70;;
13197;SDS011;6664;52.514;13.440;2023-04-24T07:38:45;0.70;;;0.70;;
13197;SDS011;6664;52.514;13.440;2023-04-24T07:41:31;0.60;;;0.60;;
13197;SDS011;6664;52.514;13.440;2023-04-24T07:44:20;0.73;;;0.70;;
13197;SDS011;6664;52.514;13.440;2023-04-24T07:47:07;0.80;;;0.80;;
13197;SDS011;6664;52.514;13.440;2023-04-24T07:49:56;0.80;;;0.80;;
13197;SDS011;6664;52.514;13.440;2023-04-24T07:52:42;1.10;;;0.90;;
13197;SDS011;6664;52.514;13.440;2023-04-24T07:55:28;1.47;;;0.63;;
13197;SDS011;6664;52.514;13.440;2023-04-24T07:58:13;0.70;;;0.70;;
13197;SDS011;6664;52.514;13.440;2023-04-24T08:01:02;0.70;;;0.70;;
13197;SDS011;6664;52.514;13.440;2023-04-24T08:03:50;0.67;;;0.67;;
13197;SDS011;6664;52.514;13.440;2023-04-24T08:06:37;0.80;;;0.80;;
13197;SDS011;6664;52.514;13.440;2023-04-24T08:09:22;2.20;;;0.80;;
13197;SDS011;6664;52.514;13.440;2023-04-24T08:12:11;0.80;;;0.60;;
13197;SDS011;6664;52.514;13.440;2023-04-24T08:14:57;0.90;;;0.70;;
13197;SDS011;6664;52.514;13.440;2023-04-24T08:17:42;0.70;;;0.70;;
13197;SDS011;6664;52.514;13.440;2023-04-24T08:20:28;0.90;;;0.57;;
13197;SDS011;6664;52.514;13.440;2023-04-24T08:23:14;0.60;;;0.60;;
13197;SDS011;6664;52.514;13.440;2023-04-24T08:26:02;0.80;;;0.77;;
13197;SDS011;6664;52.514;13.440;2023-04-24T08:28:48;0.63;;;0.63;;
13197;SDS011;6664;52.514;13.440;2023-04-24T08:31:33;1.67;;;0.60;;
13197;SDS011;6664;52.514;13.440;2023-04-24T08:34:20;0.70;;;0.70;;
13197;SDS011;6664;52.514;13.440;2023-04-24T08:37:06;5.60;;;0.80;;
13197;SDS011;6664;52.514;13.440;2023-04-24T08:39:52;0.50;;;0.50;;
13197;SDS011;6664;52.514;13.440;2023-04-24T08:42:41;0.83;;;0.83;;
13197;SDS011;6664;52.514;13.440;2023-04-24T08:45:29;3.67;;;1.00;;
13197;SDS011;6664;52.514;13.440;2023-04-24T08:48:14;0.70;;;0.70;;
13197;SDS011;6664;52.514;13.440;2023-04-24T08:51:15;0.70;;;0.70;;
13197;SDS011;6664;52.514;13.440;2023-04-24T08:54:02;1.30;;;1.03;;
13197;SDS011;6664;52.514;13.440;2023-04-24T08:56:49;1.13;;;1.03;;
13197;SDS011;6664;52.514;13.440;2023-04-24T08:59:36;1.33;;;1.23;;
13197;SDS011;6664;52.514;13.440;2023-04-24T09:02:23;0.70;;;0.70;;
13197;SDS011;6664;52.514;13.440;2023-04-24T09:05:09;0.90;;;0.60;;
13197;SDS011;6664;52.514;13.440;2023-04-24T09:07:56;0.90;;;0.73;;
13197;SDS011;6664;52.514;13.440;2023-04-24T09:10:43;3.07;;;0.70;;
13197;SDS011;6664;52.514;13.440;2023-04-24T09:13:29;0.70;;;0.70;;
13197;SDS011;6664;52.514;13.440;2023-04-24T09:16:16;3.07;;;1.00;;
13197;SDS011;6664;52.514;13.440;2023-04-24T09:19:02;4.10;;;0.83;;
13197;SDS011;6664;52.514;13.440;2023-04-24T09:21:48;2.67;;;0.90;;
13197;SDS011;6664;52.514;13.440;2023-04-24T09:24:34;3.80;;;0.70;;
13197;SDS011;6664;52.514;13.440;2023-04-24T09:27:22;0.70;;;0.60;;
13197;SDS011;6664;52.514;13.440;2023-04-24T09:30:08;0.73;;;0.73;;
13197;SDS011;6664;52.514;13.440;2023-04-24T09:33:28;3.60;;;0.80;;
13197;SDS011;6664;52.514;13.440;2023-04-24T09:36:09;0.70;;;0.70;;
13197;SDS011;6664;52.514;13.440;2023-04-24T09:39:01;0.80;;;0.60;;
13197;SDS011;6664;52.514;13.440;2023-04-24T09:41:49;0.80;;;0.73;;
13197;SDS011;6664;52.514;13.440;2023-04-24T09:44:36;0.87;;;0.80;;
13197;SDS011;6664;52.514;13.440;2023-04-24T09:47:22;0.73;;;0.73;;
13197;SDS011;6664;52.514;13.440;2023-04-24T09:50:14;0.80;;;0.80;;
13197;SDS011;6664;52.514;13.440;2023-04-24T09:53:05;3.07;;;0.70;;
13197;SDS011;6664;52.514;13.440;2023-04-24T09:55:55;0.97;;;0.90;;
13197;SDS011;6664;52.514;13.440;2023-04-24T09:58:41;0.80;;;0.80;;
13197;SDS011;6664;52.514;13.440;2023-04-24T10:01:30;0.73;;;0.70;;
13197;SDS011;6664;52.514;13.440;2023-04-24T10:07:15;0.87;;;0.70;;
13197;SDS011;6664;52.514;13.440;2023-04-24T10:10:03;0.97;;;0.90;;
13197;SDS011;6664;52.514;13.440;2023-04-24T10:12:50;0.60;;;0.60;;
13197;SDS011;6664;52.514;13.440;2023-04-24T10:15:37;0.90;;;0.80;;
13197;SDS011;6664;52.514;13.440;2023-04-24T10:18:26;0.70;;;0.70;;
13197;SDS011;6664;52.514;13.440;2023-04-24T10:21:12;1.07;;;0.70;;
13197;SDS011;6664;52.514;13.440;2023-04-24T10:23:58;1.43;;;0.70;;
13197;SDS011;6664;52.514;13.440;2023-04-24T10:26:50;0.90;;;0.90;;
13197;SDS011;6664;52.514;13.440;2023-04-24T10:29:37;0.70;;;0.70;;
13197;SDS011;6664;52.514;13.440;2023-04-24T10:32:25;0.67;;;0.67;;
13197;SDS011;6664;52.514;13.440;2023-04-24T10:35:13;1.23;;;0.93;;
13197;SDS011;6664;52.514;13.440;2023-04-24T10:38:05;2.50;;;0.70;;
13197;SDS011;6664;52.514;13.440;2023-04-24T10:40:57;0.70;;;0.67;;
13197;SDS011;6664;52.514;13.440;2023-04-24T10:44:05;0.90;;;0.90;;
13197;SDS011;6664;52.514;13.440;2023-04-24T10:46:55;1.83;;;0.90;;
13197;SDS011;6664;52.514;13.440;2023-04-24T10:49:41;0.60;;;0.60;;
13197;SDS011;6664;52.514;13.440;2023-04-24T10:52:43;3.70;;;0.83;;
13197;SDS011;6664;52.514;13.440;2023-04-24T10:58:44;0.93;;;0.87;;
13197;SDS011;6664;52.514;13.440;2023-04-24T11:01:41;1.10;;;0.90;;
13197;SDS011;6664;52.514;13.440;2023-04-24T11:04:39;0.80;;;0.80;;
13197;SDS011;6664;52.514;13.440;2023-04-24T11:07:25;7.10;;;1.20;;
13197;SDS011;6664;52.514;13.440;2023-04-24T11:10:21;0.80;;;0.80;;
13197;SDS011;6664;52.514;13.440;2023-04-24T11:13:13;2.20;;;0.83;;
13197;SDS011;6664;52.514;13.440;2023-04-24T11:16:19;1.20;;;0.70;;
13197;SDS011;6664;52.514;13.440;2023-04-24T11:22:03;0.70;;;0.60;;
13197;SDS011;6664;52.514;13.440;2023-04-24T11:24:59;0.73;;;0.60;;
13197;SDS011;6664;52.514;13.440;2023-04-24T11:27:48;1.00;;;0.90;;
13197;SDS011;6664;52.514;13.440;2023-04-24T11:30:35;1.30;;;0.80;;
13197;SDS011;6664;52.514;13.440;2023-04-24T11:33:27;2.53;;;0.80;;
13197;SDS011;6664;52.514;13.440;2023-04-24T11:36:12;2.10;;;0.80;;
13197;SDS011;6664;52.514;13.440;2023-04-24T11:38:58;0.73;;;0.73;;
13197;SDS011;6664;52.514;13.440;2023-04-24T11:41:44;1.10;;;0.90;;
13197;SDS011;6664;52.514;13.440;2023-04-24T11:44:30;1.07;;;0.80;;
13197;SDS011;6664;52.514;13.440;2023-04-24T11:47:21;1.73;;;0.90;;
13197;SDS011;6664;52.514;13.440;2023-04-24T11:50:16;5.20;;;1.00;;
13197;SDS011;6664;52.514;13.440;2023-04-24T11:53:03;2.27;;;0.90;;
13197;SDS011;6664;52.514;13.440;2023-04-24T11:55:49;2.53;;;0.83;;
13197;SDS011;6664;52.514;13.440;2023-04-24T11:58:35;0.70;;;0.70;;
13197;SDS011;6664;52.514;13.440;2023-04-24T12:01:24;0.77;;;0.70;;
13197;SDS011;6664;52.514;13.440;2023-04-24T12:04:10;2.43;;;0.80;;
13197;SDS011;6664;52.514;13.440;2023-04-24T12:07:02;2.90;;;0.77;;
13197;SDS011;6664;52.514;13.440;2023-04-24T12:09:55;1.63;;;0.80;;
13197;SDS011;6664;52.514;13.440;2023-04-24T12:12:48;4.73;;;0.80;;
13197;SDS011;6664;52.514;13.440;2023-04-24T12:15:39;2.93;;;0.87;;
13197;SDS011;6664;52.514;13.440;2023-04-24T12:18:25;0.70;;;0.70;;
13197;SDS011;6664;52.514;13.440;2023-04-24T12:21:20;1.23;;;1.00;;
13197;SDS011;6664;52.514;13.440;2023-04-24T12:24:12;1.20;;;1.00;;
13197;SDS011;6664;52.514;13.440;2023-04-24T12:26:57;2.10;;;0.70;;
13197;SDS011;6664;52.514;13.440;2023-04-24T12:29:53;0.90;;;0.80;;
13197;SDS011;6664;52.514;13.440;2023-04-24T12:32:44;0.80;;;0.80;;
13197;SDS011;6664;52.514;13.440;2023-04-24T12:35:32;2.20;;;0.70;;
13197;SDS011;6664;52.514;13.440;2023-04-24T12:38:21;4.30;;;0.80;;
13197;SDS011;6664;52.514;13.440;2023-04-24T12:41:11;0.83;;;0.77;;
13197;SDS011;6664;52.514;13.440;2023-04-24T12:44:00;1.83;;;0.80;;
13197;SDS011;6664;52.514;13.440;2023-04-24T12:46:45;3.70;;;0.87;;
13197;SDS011;6664;52.514;13.440;2023-04-24T12:49:31;0.70;;;0.70;;
13197;SDS011;6664;52.514;13.440;2023-04-24T12:52:19;1.43;;;0.70;;
13197;SDS011;6664;52.514;13.440;2023-04-24T12:55:05;1.27;;;0.77;;
13197;SDS011;6664;52.514;13.440;2023-04-24T12:57:52;0.90;;;0.70;;
13197;SDS011;6664;52.514;13.440;2023-04-24T13:00:40;1.67;;;0.90;;
13197;SDS011;6664;52.514;13.440;2023-04-24T13:03:28;0.90;;;0.70;;
13197;SDS011;6664;52.514;13.440;2023-04-24T13:06:14;0.73;;;0.70;;
13197;SDS011;6664;52.514;13.440;2023-04-24T13:09:00;0.90;;;0.90;;
13197;SDS011;6664;52.514;13.440;2023-04-24T13:11:45;1.23;;;0.70;;
13197;SDS011;6664;52.514;13.440;2023-04-24T13:14:31;0.70;;;0.70;;
13197;SDS011;6664;52.514;13.440;2023-04-24T13:17:17;0.90;;;0.90;;
13197;SDS011;6664;52.514;13.440;2023-04-24T13:20:03;3.63;;;1.10;;
13197;SDS011;6664;52.514;13.440;2023-04-24T13:22:49;0.93;;;0.93;;
13197;SDS011;6664;52.514;13.440;2023-04-24T13:25:35;0.80;;;0.80;;
13197;SDS011;6664;52.514;13.440;2023-04-24T13:28:24;1.93;;;1.00;;
13197;SDS011;6664;52.514;13.440;2023-04-24T13:31:10;2.83;;;0.70;;
13197;SDS011;6664;52.514;13.440;2023-04-24T13:33:55;0.70;;;0.70;;
13197;SDS011;6664;52.514;13.440;2023-04-24T13:36:41;1.50;;;0.73;;
13197;SDS011;6664;52.514;13.440;2023-04-24T13:39:29;0.57;;;0.57;;
13197;SDS011;6664;52.514;13.440;2023-04-24T13:42:14;1.48;;;0.70;;
13197;SDS011;6664;52.514;13.440;2023-04-24T13:45:00;0.60;;;0.60;;
13197;SDS011;6664;52.514;13.440;2023-04-24T13:48:08;0.50;;;0.50;;
13197;SDS011;6664;52.514;13.440;2023-04-24T13:50:56;0.80;;;0.80;;
13197;SDS011;6664;52.514;13.440;2023-04-24T13:53:41;0.60;;;0.60;;
13197;SDS011;6664;52.514;13.440;2023-04-24T13:56:27;3.63;;;0.82;;
13197;SDS011;6664;52.514;13.440;2023-04-24T13:59:13;0.70;;;0.70;;
13197;SDS011;6664;52.514;13.440;2023-04-24T14:02:01;1.45;;;0.60;;
13197;SDS011;6664;52.514;13.440;2023-04-24T14:04:46;0.80;;;0.80;;
13197;SDS011;6664;52.514;13.440;2023-04-24T14:07:33;4.05;;;0.80;;
13197;SDS011;6664;52.514;13.440;2023-04-24T14:10:19;1.08;;;0.73;;
13197;SDS011;6664;52.514;13.440;2023-04-24T14:13:05;1.95;;;0.70;;
13197;SDS011;6664;52.514;13.440;2023-04-24T14:15:51;1.02;;;0.60;;
13197;SDS011;6664;52.514;13.440;2023-04-24T14:18:37;1.52;;;0.80;;
13197;SDS011;6664;52.514;13.440;2023-04-24T14:21:26;0.73;;;0.60;;
13197;SDS011;6664;52.514;13.440;2023-04-24T14:24:11;0.73;;;0.73;;
13197;SDS011;6664;52.514;13.440;2023-04-24T14:26:57;1.37;;;0.83;;
13197;SDS011;6664;52.514;13.440;2023-04-24T14:29:42;3.50;;;0.80;;
13197;SDS011;6664;52.514;13.440;2023-04-24T14:32:29;6.23;;;1.10;;
13197;SDS011;6664;52.514;13.440;2023-04-24T14:35:15;1.10;;;0.87;;
13197;SDS011;6664;52.514;13.440;2023-04-24T14:38:01;0.67;;;0.67;;
13197;SDS011;6664;52.514;13.440;2023-04-24T14:40:48;3.53;;;0.80;;
13197;SDS011;6664;52.514;13.440;2023-04-24T14:43:50;0.97;;;0.77;;
13197;SDS011;6664;52.514;13.440;2023-04-24T14:46:35;1.00;;;1.00;;
13197;SDS011;6664;52.514;13.440;2023-04-24T14:49:22;1.07;;;0.90;;
13197;SDS011;6664;52.514;13.440;2023-04-24T14:52:08;2.23;;;1.03;;
13197;SDS011;6664;52.514;13.440;2023-04-24T14:54:54;1.07;;;0.97;;
13197;SDS011;6664;52.514;13.440;2023-04-24T14:57:40;1.00;;;0.80;;
13197;SDS011;6664;52.514;13.440;2023-04-24T15:00:26;0.80;;;0.80;;
13197;SDS011;6664;52.514;13.440;2023-04-24T15:03:11;0.90;;;0.90;;
13197;SDS011;6664;52.514;13.440;2023-04-24T15:05:57;0.90;;;0.80;;
13197;SDS011;6664;52.514;13.440;2023-04-24T15:08:43;1.40;;;0.80;;
13197;SDS011;6664;52.514;13.440;2023-04-24T15:11:31;1.20;;;1.10;;
13197;SDS011;6664;52.514;13.440;2023-04-24T15:14:17;2.40;;;1.00;;
13197;SDS011;6664;52.514;13.440;2023-04-24T15:17:03;1.10;;;0.87;;
13197;SDS011;6664;52.514;13.440;2023-04-24T15:19:52;1.33;;;1.23;;
13197;SDS011;6664;52.514;13.440;2023-04-24T15:22:39;0.90;;;0.90;;
13197;SDS011;6664;52.514;13.440;2023-04-24T15:25:26;5.33;;;3.00;;
13197;SDS011;6664;52.514;13.440;2023-04-24T15:28:12;0.73;;;0.73;;
13197;SDS011;6664;52.514;13.440;2023-04-24T15:31:00;2.50;;;1.10;;
13197;SDS011;6664;52.514;13.440;2023-04-24T15:33:46;0.93;;;0.93;;
13197;SDS011;6664;52.514;13.440;2023-04-24T15:36:37;4.53;;;1.17;;
13197;SDS011;6664;52.514;13.440;2023-04-24T15:39:22;0.80;;;0.80;;
13197;SDS011;6664;52.514;13.440;2023-04-24T15:42:13;1.63;;;1.20;;
13197;SDS011;6664;52.514;13.440;2023-04-24T15:45:00;1.33;;;1.23;;
13197;SDS011;6664;52.514;13.440;2023-04-24T15:47:51;1.13;;;1.03;;
13197;SDS011;6664;52.514;13.440;2023-04-24T15:50:37;2.07;;;0.90;;
13197;SDS011;6664;52.514;13.440;2023-04-24T15:53:22;1.63;;;1.00;;
13197;SDS011;6664;52.514;13.440;2023-04-24T15:56:08;2.50;;;1.10;;
13197;SDS011;6664;52.514;13.440;2023-04-24T15:58:54;0.90;;;0.90;;
13197;SDS011;6664;52.514;13.440;2023-04-24T16:01:39;0.93;;;0.90;;
13197;SDS011;6664;52.514;13.440;2023-04-24T16:04:25;1.30;;;1.20;;
13197;SDS011;6664;52.514;13.440;2023-04-24T16:07:11;0.90;;;0.90;;
13197;SDS011;6664;52.514;13.440;2023-04-24T16:09:59;2.20;;;0.93;;
13197;SDS011;6664;52.514;13.440;2023-04-24T16:12:45;1.47;;;1.33;;
13197;SDS011;6664;52.514;13.440;2023-04-24T16:15:31;0.90;;;0.90;;
13197;SDS011;6664;52.514;13.440;2023-04-24T16:18:20;2.10;;;1.30;;
13197;SDS011;6664;52.514;13.440;2023-04-24T16:21:06;1.30;;;1.20;;
13197;SDS011;6664;52.514;13.440;2023-04-24T16:23:54;2.80;;;1.40;;
13197;SDS011;6664;52.514;13.440;2023-04-24T16:26:40;2.00;;;0.90;;
13197;SDS011;6664;52.514;13.440;2023-04-24T16:29:25;1.50;;;1.40;;
13197;SDS011;6664;52.514;13.440;2023-04-24T16:32:14;1.60;;;1.50;;
13197;SDS011;6664;52.514;13.440;2023-04-24T16:35:00;4.03;;;1.37;;
13197;SDS011;6664;52.514;13.440;2023-04-24T16:37:48;1.10;;;1.10;;
13197;SDS011;6664;52.514;13.440;2023-04-24T16:40:33;2.33;;;1.10;;
13197;SDS011;6664;52.514;13.440;2023-04-24T16:43:19;1.20;;;1.10;;
13197;SDS011;6664;52.514;13.440;2023-04-24T16:46:05;1.20;;;1.10;;
13197;SDS011;6664;52.514;13.440;2023-04-24T16:48:51;1.00;;;1.00;;
13197;SDS011;6664;52.514;13.440;2023-04-24T16:51:36;3.17;;;1.00;;
13197;SDS011;6664;52.514;13.440;2023-04-24T16:54:22;1.70;;;0.90;;
13197;SDS011;6664;52.514;13.440;2023-04-24T16:57:08;1.60;;;0.80;;